Kenner, LA (70063)

1:08 AM CDT on March 27, 2017 (GMT -0500)
DeSoto | | Change Station

Elev 7 ft 29.98 °N, 90.22 °W | Updated 0 second ago

Scattered Clouds
Scattered Clouds
70.7 °F
Feels Like 70.7 °F
N
3.8
Wind Variable Wind from SE
Gusts 6.0 mph

Today
High -- | Low -- °F
--% Chance of Precip.
Yesterday
High -- | Low -- °F
Precip. -- in
Pressure 29.98 in
Visibility 10.0 miles
Clouds Few 1400 ft
Scattered Clouds 2200 ft
Dew Point 70 °F
Humidity 98%
Rainfall 0.00 in
Snow Depth Not available.
6:55 AM 7:16 PM
Waning Crescent, 1% visible
METAR KMSY 270553Z 15007KT 10SM FEW014 SCT022 21/20 A2997 RMK AO2 SLP151 T02110200 10239 20206 402720189 58010
Pressure 29.98 in
Visibility 10.0 miles
Clouds Few 1400 ft
Scattered Clouds 2200 ft
Dew Point 70 °F
Humidity 98%
Rainfall 0.00 in
Snow Depth Not available.
6:55 AM 7:16 PM
Waning Crescent, 1% visible
METAR KMSY 270553Z 15007KT 10SM FEW014 SCT022 21/20 A2997 RMK AO2 SLP151 T02110200 10239 20206 402720189 58010

Get Severe Weather Alerts

Thanks for signing up!

Be on the lookout for a verification email in your inbox.

You'll start receiving the daily forecast at 8 AM.

×

10-Day Weather Forecast

Almanac

Astronomy

Mar. 27, 2017 Rise Set
Actual Time
Civil Twilight
Nautical Twilight
Astronomical Twilight
Moon
Length of Visible Light
Length of Day
Tomorrow will be .
, % of the Moon is Illuminated

Today's Extremes

State Highs State Lows

Community

WunderPhotos

Upload Photos

1,962,540 photos uploaded!

WunderBlog® & News

Nearby

Air Quality

  Air Quality AQ Index Pollutant
Not available.

Snow Depth

Station Depth Elevation

Earthquake Activity

City Distance Mag. Time & Date
Minimum magnitude displayed is 2.5.

Earthquake Activity

City Distance Mag. Time & Date
Minimum magnitude displayed is 2.5.

Coastal Water Temperatures

Place Temperature

Stations

Nearby Weather Stations

Station Location Temp. Windchill Dew Point Humidity Wind Precip. Elev Updated Type
                   

Watches & Warnings

There are currently no watches in effect.